createdAt,value
2023-02-17T00:00:33.766Z,101093.94
2023-02-17T00:01:36.168Z,101083.44
2023-02-17T00:02:37.826Z,101082.94
2023-02-17T00:03:39.505Z,101083.53
2023-02-17T00:04:41.086Z,101084.91
2023-02-17T00:05:42.618Z,101080.16
2023-02-17T00:06:44.241Z,101081.34
2023-02-17T00:07:45.694Z,101076.34
2023-02-17T00:08:47.273Z,101086.41
2023-02-17T00:09:48.745Z,101082.25
2023-02-17T00:10:59.503Z,101076.91
2023-02-17T00:12:00.978Z,101077.53
2023-02-17T00:13:02.705Z,101082.03
2023-02-17T00:14:04.532Z,101076.19
2023-02-17T00:15:06.225Z,101078.13
2023-02-17T00:16:10.984Z,101077.63
2023-02-17T00:17:12.551Z,101084.06
2023-02-17T00:18:14.022Z,101081.84
2023-02-17T00:19:25.284Z,101075.66
2023-02-17T00:20:28.361Z,101077.09
2023-02-17T00:21:30.706Z,101071.00
2023-02-17T00:22:32.187Z,101074.88
2023-02-17T00:23:33.698Z,101077.19
2023-02-17T00:24:37.243Z,101063.44
2023-02-17T00:25:38.935Z,101072.94
2023-02-17T00:26:40.463Z,101068.72
2023-02-17T00:27:41.926Z,101067.88
2023-02-17T00:28:43.515Z,101070.16
2023-02-17T00:29:45.128Z,101066.25
2023-02-17T00:30:46.570Z,101074.56
2023-02-17T00:31:48.182Z,101077.63
2023-02-17T00:32:49.689Z,101069.16
2023-02-17T00:33:53.490Z,101066.09
2023-02-17T00:34:56.912Z,101072.19
2023-02-17T00:35:58.386Z,101076.91
2023-02-17T00:36:59.905Z,101075.06
2023-02-17T00:38:01.434Z,101069.22
2023-02-17T00:39:03.016Z,101073.19
2023-02-17T00:40:04.683Z,101067.72
2023-02-17T00:41:08.234Z,101068.81
2023-02-17T00:42:09.772Z,101059.59
2023-02-17T00:43:11.224Z,101070.50
2023-02-17T00:44:16.421Z,101067.97
2023-02-17T00:45:18.348Z,101067.59
2023-02-17T00:46:19.947Z,101072.63
2023-02-17T00:47:21.471Z,101079.31
2023-02-17T00:48:22.990Z,101067.59
2023-02-17T00:49:25.124Z,101065.91
2023-02-17T00:50:26.737Z,101065.41
2023-02-17T00:51:28.241Z,101070.16
2023-02-17T00:52:31.101Z,101066.09
2023-02-17T00:53:32.561Z,101067.53
2023-02-17T00:54:34.852Z,101056.38
2023-02-17T00:55:36.839Z,101065.41
2023-02-17T00:56:38.382Z,101068.03
2023-02-17T00:57:39.860Z,101064.72
2023-02-17T00:58:41.651Z,101059.22
2023-02-17T00:59:43.166Z,101069.63
2023-02-17T01:00:44.641Z,101059.03
2023-02-17T01:01:46.252Z,101073.59
2023-02-17T01:02:47.732Z,101063.53
2023-02-17T01:03:49.213Z,101067.44
2023-02-17T01:04:50.733Z,101068.25
2023-02-17T01:05:52.397Z,101068.59
2023-02-17T01:06:53.889Z,101062.25
2023-02-17T01:07:57.625Z,101067.66
2023-02-17T01:08:59.095Z,101073.81
2023-02-17T01:10:01.565Z,101082.22
2023-02-17T01:11:03.123Z,101077.72
2023-02-17T01:12:06.768Z,101075.19
2023-02-17T01:13:08.480Z,101083.25
2023-02-17T01:14:10.956Z,101073.16
2023-02-17T01:15:12.913Z,101085.78
2023-02-17T01:16:18.085Z,101079.94
2023-02-17T01:17:19.593Z,101079.41
2023-02-17T01:18:21.777Z,101091.06
2023-02-17T01:19:25.097Z,101090.22
2023-02-17T01:20:27.556Z,101085.47
2023-02-17T01:21:29.128Z,101083.25
2023-02-17T01:22:30.621Z,101087.16
2023-02-17T01:23:32.148Z,101084.34
2023-02-17T01:24:33.876Z,101079.94
2023-02-17T01:25:40.342Z,101086.72
2023-02-17T01:26:42.051Z,101090.44
2023-02-17T01:27:43.545Z,101087.38
2023-02-17T01:28:45.014Z,101086.25
2023-02-17T01:29:46.477Z,101061.03
2023-02-17T01:30:48.393Z,101077.97
2023-02-17T01:31:49.916Z,101071.75
2023-02-17T01:32:51.629Z,101077.34
2023-02-17T01:33:56.385Z,101070.06
2023-02-17T01:34:57.875Z,101075.66
2023-02-17T01:36:06.135Z,101071.44
2023-02-17T01:37:07.748Z,101086.72
2023-02-17T01:38:10.869Z,101085.00
2023-02-17T01:39:13.582Z,101075.78
2023-02-17T01:40:15.214Z,101082.22
2023-02-17T01:41:17.442Z,101087.56
2023-02-17T01:42:20.622Z,101085.84
2023-02-17T01:43:23.372Z,101083.41
2023-02-17T01:44:25.448Z,101070.78
2023-02-17T01:45:34.270Z,101075.53
2023-02-17T01:46:35.951Z,101089.84
2023-02-17T01:47:37.469Z,101081.47
2023-02-17T01:48:41.374Z,101084.00
2023-02-17T01:49:42.830Z,101083.47
2023-02-17T01:50:46.053Z,101077.34
2023-02-17T01:51:49.090Z,101077.72
2023-02-17T01:52:50.644Z,101077.72
2023-02-17T01:53:53.586Z,101076.88
2023-02-17T01:54:58.713Z,101079.66
2023-02-17T01:56:02.035Z,101067.84
2023-02-17T01:57:03.618Z,101077.72
2023-02-17T01:58:05.135Z,101066.78
2023-02-17T01:59:08.374Z,101067.38
2023-02-17T02:00:10.372Z,101068.53
2023-02-17T02:01:14.484Z,101064.63
2023-02-17T02:02:16.043Z,101068.25
2023-02-17T02:03:17.628Z,101074.97
2023-02-17T02:04:19.473Z,101078.03
2023-02-17T02:05:21.011Z,101068.53
2023-02-17T02:06:23.645Z,101075.50
2023-02-17T02:07:26.790Z,101062.94
2023-02-17T02:08:28.357Z,101073.53
2023-02-17T02:09:31.199Z,101062.94
2023-02-17T02:10:32.921Z,101058.53
2023-02-17T02:11:34.576Z,101054.63
2023-02-17T02:12:36.653Z,101051.84
2023-02-17T02:13:38.173Z,101048.69
2023-02-17T02:14:39.625Z,101045.66
2023-02-17T02:15:44.095Z,101046.72
2023-02-17T02:16:45.717Z,101043.09
2023-02-17T02:17:47.153Z,101041.75
2023-02-17T02:18:51.516Z,101043.63
2023-02-17T02:19:56.016Z,101038.53
2023-02-17T02:21:00.261Z,101038.81
2023-02-17T02:22:20.337Z,101036.06
2023-02-17T02:23:21.854Z,101038.28
2023-02-17T02:24:25.579Z,101036.31
2023-02-17T02:25:33.985Z,101032.44
2023-02-17T02:26:54.263Z,101028.00
2023-02-17T02:28:14.704Z,101028.00
2023-02-17T02:29:18.196Z,101024.56
2023-02-17T02:30:19.671Z,101031.25
2023-02-17T02:31:27.027Z,101027.53
2023-02-17T02:32:28.484Z,101025.69
2023-02-17T02:33:40.935Z,101019.19
2023-02-17T02:34:44.493Z,101020.56
2023-02-17T02:35:48.780Z,101027.59
2023-02-17T02:36:51.395Z,101003.19
2023-02-17T02:38:25.573Z,101020.47
2023-02-17T02:39:29.323Z,101019.53
2023-02-17T02:40:32.405Z,101016.94
2023-02-17T02:41:34.909Z,101015.88
2023-02-17T02:42:37.341Z,101017.31
2023-02-17T02:43:40.790Z,101009.50
2023-02-17T02:44:42.840Z,101012.44
2023-02-17T02:45:45.268Z,101008.97
2023-02-17T02:46:56.061Z,101008.13
2023-02-17T02:47:57.765Z,101010.94
2023-02-17T02:49:01.829Z,101003.69
2023-02-17T02:50:03.436Z,100997.28
2023-02-17T02:51:15.912Z,101005.13
2023-02-17T02:52:23.372Z,101002.34
2023-02-17T02:53:27.862Z,101003.19
2023-02-17T02:54:41.423Z,100994.88
2023-02-17T02:55:45.759Z,100990.44
2023-02-17T02:56:53.001Z,100996.03
2023-02-17T02:57:57.246Z,100999.41
2023-02-17T02:59:17.536Z,100990.28
2023-02-17T03:00:20.815Z,100983.31
2023-02-17T03:01:38.931Z,100987.53
2023-02-17T03:02:52.318Z,100974.97
2023-02-17T03:03:56.564Z,100978.88
2023-02-17T03:05:01.212Z,100980.31
2023-02-17T03:06:06.633Z,100989.53
2023-02-17T03:07:12.535Z,100980.91
2023-02-17T03:08:15.992Z,100980.06
2023-02-17T03:09:25.034Z,100984.16
2023-02-17T03:10:26.538Z,100983.31
2023-02-17T03:11:33.855Z,100977.47
2023-02-17T03:12:38.221Z,100974.88
2023-02-17T03:13:41.034Z,100981.22
2023-02-17T03:14:44.986Z,100965.75
2023-02-17T03:15:46.670Z,100986.59
2023-02-17T03:16:48.692Z,100982.19
2023-02-17T03:17:51.884Z,100979.59
2023-02-17T03:18:53.541Z,100981.38
2023-02-17T03:19:55.568Z,100977.22
2023-02-17T03:20:57.617Z,100980.03
2023-02-17T03:22:10.037Z,100984.13
2023-02-17T03:23:11.640Z,100979.69
2023-02-17T03:24:13.158Z,100976.66
2023-02-17T03:25:14.688Z,100976.97
2023-02-17T03:26:17.247Z,100975.94
2023-02-17T03:27:20.406Z,100978.50
2023-02-17T03:28:23.033Z,100982.91
2023-02-17T03:29:25.013Z,100982.91
2023-02-17T03:30:26.596Z,100981.66
2023-02-17T03:31:30.703Z,100983.88
2023-02-17T03:32:32.498Z,100984.78
2023-02-17T03:33:33.983Z,100981.53
2023-02-17T03:34:35.454Z,100984.41
2023-02-17T03:35:36.970Z,100984.72
2023-02-17T03:36:38.491Z,100985.34
2023-02-17T03:37:39.969Z,100990.44
2023-02-17T03:38:41.545Z,100982.16
2023-02-17T03:39:43.007Z,100979.94
2023-02-17T03:40:44.447Z,100990.59
2023-02-17T03:41:46.133Z,100986.16
2023-02-17T03:42:47.857Z,100990.41
2023-02-17T03:43:49.287Z,100995.47
2023-02-17T03:44:50.905Z,100986.81
2023-02-17T03:45:52.412Z,100991.56
2023-02-17T03:46:53.959Z,100991.50
2023-02-17T03:47:55.431Z,100988.38
2023-02-17T03:48:56.918Z,100986.44
2023-02-17T03:49:58.415Z,100999.56
2023-02-17T03:50:59.866Z,100994.28
2023-02-17T03:52:01.348Z,100996.00
2023-02-17T03:53:02.917Z,100988.97
2023-02-17T03:54:04.621Z,100983.94
2023-02-17T03:55:06.147Z,100990.72
2023-02-17T03:56:07.819Z,100989.03
2023-02-17T03:57:09.453Z,100990.72
2023-02-17T03:58:10.915Z,100982.91
2023-02-17T03:59:12.403Z,100984.59
2023-02-17T04:00:14.125Z,100984.59
2023-02-17T04:01:15.619Z,100987.13
2023-02-17T04:02:17.178Z,100993.94
2023-02-17T04:03:18.682Z,100981.66
2023-02-17T04:04:20.224Z,100991.47
2023-02-17T04:05:21.733Z,100988.41
2023-02-17T04:06:23.239Z,100997.91
2023-02-17T04:07:24.796Z,100969.50
2023-02-17T04:08:26.356Z,100984.78
2023-02-17T04:09:27.823Z,100987.31
2023-02-17T04:10:29.297Z,100989.53
2023-02-17T04:11:30.842Z,100994.81
2023-02-17T04:12:32.348Z,100990.91
2023-02-17T04:13:33.988Z,100988.59
2023-02-17T04:14:35.534Z,100989.22
2023-02-17T04:15:37.104Z,100990.91
2023-02-17T04:16:39.317Z,100993.75
2023-02-17T04:17:40.872Z,100998.22
2023-02-17T04:18:42.349Z,100997.13
2023-02-17T04:19:43.785Z,100991.25
2023-02-17T04:20:45.298Z,100991.59
2023-02-17T04:21:46.719Z,100989.03
2023-02-17T04:22:48.213Z,100993.47
2023-02-17T04:23:49.736Z,100988.16
2023-02-17T04:24:51.199Z,100994.06
2023-02-17T04:25:52.757Z,100996.59
2023-02-17T04:26:54.283Z,100993.78
2023-02-17T04:27:55.780Z,101000.00
2023-02-17T04:28:57.306Z,100998.81
2023-02-17T04:29:58.834Z,101006.31
2023-02-17T04:31:00.573Z,101000.63
2023-02-17T04:32:02.263Z,100999.69
2023-02-17T04:33:04.060Z,101009.47
2023-02-17T04:34:05.633Z,100999.56
2023-02-17T04:35:07.342Z,100998.19
2023-02-17T04:36:08.881Z,101001.19
2023-02-17T04:37:10.438Z,101006.78
2023-02-17T04:38:12.026Z,100997.03
2023-02-17T04:39:13.474Z,100999.03
2023-02-17T04:40:15.103Z,100996.19
2023-02-17T04:41:16.609Z,100997.88
2023-02-17T04:42:18.072Z,100995.53
2023-02-17T04:43:19.531Z,100994.34
2023-02-17T04:44:21.089Z,100990.97
2023-02-17T04:45:22.632Z,100990.44
2023-02-17T04:46:24.105Z,100990.44
2023-02-17T04:47:25.655Z,100990.72
2023-02-17T04:48:27.131Z,100989.34
2023-02-17T04:49:28.584Z,100990.44
2023-02-17T04:50:30.032Z,100994.03
2023-02-17T04:51:31.473Z,100995.41
2023-02-17T04:52:32.966Z,100984.34
2023-02-17T04:53:34.473Z,101003.19
2023-02-17T04:54:35.981Z,100997.84
2023-02-17T04:55:37.492Z,101000.66
2023-02-17T04:56:38.968Z,101002.59
2023-02-17T04:57:40.477Z,100988.97
2023-02-17T04:58:41.950Z,100994.88
2023-02-17T04:59:43.495Z,100998.25
2023-02-17T05:00:46.315Z,100997.09
2023-02-17T05:01:47.851Z,101005.47
2023-02-17T05:02:49.352Z,101001.63
2023-02-17T05:03:50.858Z,101008.44
2023-02-17T05:04:52.899Z,101002.31
2023-02-17T05:05:54.400Z,100991.13
2023-02-17T05:06:55.908Z,100993.91
2023-02-17T05:07:57.433Z,100986.91
2023-02-17T05:08:58.913Z,100994.44
2023-02-17T05:10:00.377Z,100994.34
2023-02-17T05:11:01.897Z,101001.50
2023-02-17T05:12:05.554Z,101002.47
2023-02-17T05:13:07.020Z,101003.38
2023-02-17T05:14:08.525Z,100996.50
2023-02-17T05:15:10.078Z,100995.47
2023-02-17T05:16:11.601Z,100997.47
2023-02-17T05:17:13.065Z,100992.72
2023-02-17T05:18:14.547Z,101003.84
2023-02-17T05:19:16.049Z,100997.72
2023-02-17T05:20:17.525Z,100997.72
2023-02-17T05:21:19.072Z,101001.13
2023-02-17T05:22:20.546Z,101008.47
2023-02-17T05:23:22.105Z,101011.34
2023-02-17T05:24:23.659Z,101006.31
2023-02-17T05:25:25.174Z,101008.88
2023-02-17T05:26:26.822Z,101009.19
2023-02-17T05:27:28.295Z,101012.00
2023-02-17T05:28:29.772Z,101003.28
2023-02-17T05:29:31.323Z,100996.31
2023-02-17T05:30:32.786Z,101004.44
2023-02-17T05:31:34.372Z,101001.97
2023-02-17T05:32:36.000Z,101006.50
2023-02-17T05:33:37.517Z,100999.44
2023-02-17T05:34:39.150Z,101008.69
2023-02-17T05:35:40.599Z,101002.81
2023-02-17T05:36:42.115Z,101003.94
2023-02-17T05:37:43.621Z,101000.41
2023-02-17T05:38:49.092Z,101006.56
2023-02-17T05:39:50.603Z,101008.78
2023-02-17T05:40:52.108Z,101005.47
2023-02-17T05:41:55.360Z,101010.78
2023-02-17T05:42:58.080Z,101013.06
2023-02-17T05:43:59.601Z,101006.09
2023-02-17T05:45:01.196Z,101006.09
2023-02-17T05:46:03.369Z,100998.81
2023-02-17T05:47:05.005Z,101007.16
2023-02-17T05:48:06.497Z,101006.00
2023-02-17T05:49:07.976Z,101007.91
2023-02-17T05:50:09.604Z,101007.06
2023-02-17T05:51:13.673Z,101010.22
2023-02-17T05:52:15.255Z,101010.53
2023-02-17T05:53:16.743Z,101006.88
2023-02-17T05:54:18.222Z,101007.47
2023-02-17T05:55:19.705Z,101021.72
2023-02-17T05:56:21.264Z,101018.91
2023-02-17T05:57:22.825Z,101029.53
2023-02-17T05:58:24.477Z,101027.50
2023-02-17T05:59:26.042Z,101025.56
2023-02-17T06:00:27.930Z,101025.56
2023-02-17T06:01:29.455Z,101020.03
2023-02-17T06:02:30.935Z,101022.81
2023-02-17T06:03:32.392Z,101015.00
2023-02-17T06:04:33.976Z,101022.88
2023-02-17T06:05:35.470Z,101027.97
2023-02-17T06:06:36.987Z,101024.06
2023-02-17T06:07:38.480Z,101029.13
2023-02-17T06:08:40.600Z,101026.91
2023-02-17T06:09:42.089Z,101021.00
2023-02-17T06:10:43.676Z,101018.47
2023-02-17T06:11:45.149Z,101019.94
2023-02-17T06:12:46.676Z,101027.50
2023-02-17T06:13:48.371Z,101024.16
2023-02-17T06:14:49.927Z,101011.63
2023-02-17T06:15:51.529Z,101011.91
2023-02-17T06:16:53.782Z,101020.88
2023-02-17T06:17:55.296Z,101013.06
2023-02-17T06:18:56.837Z,101000.75
2023-02-17T06:19:58.438Z,101016.16
2023-02-17T06:20:59.937Z,101006.06
2023-02-17T06:22:01.405Z,101011.41
2023-02-17T06:23:02.971Z,101016.47
2023-02-17T06:24:04.594Z,101022.06
2023-02-17T06:25:06.314Z,101011.97
2023-02-17T06:26:08.262Z,101018.69
2023-02-17T06:27:10.019Z,101011.41
2023-02-17T06:28:11.524Z,101004.13
2023-02-17T06:29:13.001Z,101009.69
2023-02-17T06:30:15.009Z,101007.19
2023-02-17T06:31:16.773Z,101006.34
2023-02-17T06:32:18.315Z,101007.19
2023-02-17T06:33:19.836Z,101008.28
2023-02-17T06:34:21.406Z,101000.75
2023-02-17T06:35:22.894Z,101001.59
2023-02-17T06:36:24.372Z,101001.28
2023-02-17T06:37:25.838Z,100996.19
2023-02-17T06:38:27.426Z,101002.88
2023-02-17T06:39:28.896Z,100994.19
2023-02-17T06:40:30.345Z,101007.63
2023-02-17T06:41:31.849Z,100995.88
2023-02-17T06:42:33.352Z,101002.25
2023-02-17T06:43:34.917Z,100992.50
2023-02-17T06:44:36.446Z,101000.63
2023-02-17T06:45:37.946Z,100998.13
2023-02-17T06:46:39.519Z,101001.28
2023-02-17T06:47:41.052Z,101006.88
2023-02-17T06:48:42.616Z,101004.91
2023-02-17T06:49:44.173Z,101019.75
2023-02-17T06:50:45.632Z,101014.16
2023-02-17T06:51:47.156Z,101016.97
2023-02-17T06:52:48.749Z,101020.91
2023-02-17T06:53:50.210Z,101024.88
2023-02-17T06:54:51.701Z,101030.22
2023-02-17T06:55:53.239Z,101033.34
2023-02-17T06:56:54.702Z,101028.00
2023-02-17T06:57:56.295Z,101030.53
2023-02-17T06:58:57.824Z,101028.00
2023-02-17T06:59:59.335Z,101023.25
2023-02-17T07:01:00.978Z,101036.72
2023-02-17T07:02:02.905Z,101026.91
2023-02-17T07:03:04.690Z,101025.53
2023-02-17T07:04:06.341Z,101030.84
2023-02-17T07:05:08.050Z,101031.66
2023-02-17T07:06:09.552Z,101032.66
2023-02-17T07:07:11.271Z,101032.50
2023-02-17T07:08:12.772Z,101032.78
2023-02-17T07:09:14.350Z,101031.66
2023-02-17T07:10:15.838Z,101031.97
2023-02-17T07:11:17.581Z,101029.44
2023-02-17T07:12:19.110Z,101031.50
2023-02-17T07:13:20.642Z,101034.88
2023-02-17T07:14:24.667Z,101043.84
2023-02-17T07:15:26.449Z,101052.81
2023-02-17T07:16:28.015Z,101053.13
2023-02-17T07:17:29.617Z,101068.56
2023-02-17T07:18:31.106Z,101068.56
2023-02-17T07:19:32.572Z,101062.44
2023-02-17T07:20:34.263Z,101066.41
2023-02-17T07:21:35.802Z,101077.06
2023-02-17T07:22:37.263Z,101070.38
2023-02-17T07:23:39.584Z,101038.25
2023-02-17T07:24:41.069Z,101069.88
2023-02-17T07:25:42.621Z,101065.03
2023-02-17T07:26:44.076Z,101069.53
2023-02-17T07:27:45.544Z,101056.91
2023-02-17T07:28:47.114Z,101056.31
2023-02-17T07:29:48.593Z,101059.97
2023-02-17T07:30:50.123Z,101052.94
2023-02-17T07:31:51.729Z,101056.31
2023-02-17T07:32:53.227Z,101055.78
2023-02-17T07:33:54.764Z,101065.28
2023-02-17T07:34:56.285Z,101058.00
2023-02-17T07:35:57.802Z,101057.97
2023-02-17T07:36:59.381Z,101047.78
2023-02-17T07:38:00.914Z,101052.28
2023-02-17T07:39:02.891Z,101050.06
2023-02-17T07:40:04.873Z,101052.63
2023-02-17T07:41:10.552Z,101050.41
2023-02-17T07:42:12.087Z,101057.44
2023-02-17T07:43:14.154Z,101045.38
2023-02-17T07:44:15.616Z,101045.66
2023-02-17T07:45:17.250Z,101037.84
2023-02-17T07:46:18.718Z,101041.22
2023-02-17T07:47:20.219Z,101036.72
2023-02-17T07:48:21.817Z,101029.75
2023-02-17T07:49:23.313Z,101029.75
2023-02-17T07:50:24.767Z,101029.47
2023-02-17T07:51:26.344Z,101027.25
2023-02-17T07:52:27.873Z,101035.16
2023-02-17T07:53:29.388Z,101033.19
2023-02-17T07:54:30.907Z,101031.81
2023-02-17T07:55:32.821Z,101040.75
2023-02-17T07:56:34.326Z,101038.44
2023-02-17T07:57:35.865Z,101040.47
2023-02-17T07:58:37.903Z,101034.63
2023-02-17T07:59:39.387Z,101043.56
2023-02-17T08:00:40.896Z,101033.47
2023-02-17T08:01:42.392Z,101034.56
2023-02-17T08:02:43.982Z,101037.59
2023-02-17T08:03:45.457Z,101044.59
2023-02-17T08:04:46.923Z,101048.50
2023-02-17T08:05:51.426Z,101052.72
2023-02-17T08:06:52.917Z,101049.16
2023-02-17T08:08:14.444Z,101055.91
2023-02-17T08:09:34.402Z,101058.44
2023-02-17T08:10:55.629Z,101064.88
2023-02-17T08:12:15.379Z,101067.16
2023-02-17T08:13:19.845Z,101053.16
2023-02-17T08:14:21.617Z,101055.72
2023-02-17T08:15:23.108Z,101062.66
2023-02-17T08:16:27.017Z,101055.38
2023-02-17T08:17:28.945Z,101061.97
2023-02-17T08:18:32.425Z,101060.81
2023-02-17T08:19:51.681Z,101061.13
2023-02-17T08:20:53.178Z,101064.25
2023-02-17T08:21:54.692Z,101070.44
2023-02-17T08:22:56.239Z,101063.19
2023-02-17T08:23:57.748Z,101066.31
2023-02-17T08:24:59.311Z,101054.84
2023-02-17T08:26:00.890Z,101053.50
2023-02-17T08:27:02.377Z,101054.84
2023-02-17T08:28:04.054Z,101053.50
2023-02-17T08:29:05.658Z,101057.97
2023-02-17T08:30:07.504Z,101055.19
2023-02-17T08:31:18.699Z,101054.06
2023-02-17T08:32:20.365Z,101046.19
2023-02-17T08:33:22.010Z,101045.94
2023-02-17T08:34:23.594Z,101039.75
2023-02-17T08:35:25.874Z,101034.34
2023-02-17T08:36:27.637Z,101038.78
2023-02-17T08:37:30.305Z,101031.16
2023-02-17T08:38:31.842Z,101037.94
2023-02-17T08:39:33.432Z,101035.72
2023-02-17T08:40:34.876Z,101034.63
2023-02-17T08:41:36.911Z,101043.28
2023-02-17T08:42:38.888Z,101039.09
2023-02-17T08:43:40.653Z,101044.69
2023-02-17T08:44:42.161Z,101042.16
2023-02-17T08:45:44.116Z,101044.69
2023-02-17T08:46:47.445Z,101034.91
2023-02-17T08:47:50.960Z,101027.06
2023-02-17T08:48:52.461Z,101030.75
2023-02-17T08:49:53.982Z,101046.38
2023-02-17T08:50:55.496Z,101043.03
2023-02-17T08:51:57.051Z,101041.31
2023-02-17T08:52:58.577Z,101037.72
2023-02-17T08:54:00.785Z,101032.44
2023-02-17T08:55:02.305Z,101029.69
2023-02-17T08:56:03.942Z,101040.91
2023-02-17T08:57:05.627Z,101041.44
2023-02-17T08:58:07.215Z,101027.16
2023-02-17T08:59:08.910Z,101038.91
2023-02-17T09:00:10.676Z,101031.94
2023-02-17T09:01:12.389Z,101026.31
2023-02-17T09:02:14.388Z,101031.59
2023-02-17T09:03:15.908Z,101038.38
2023-02-17T09:04:17.587Z,101024.63
2023-02-17T09:05:19.199Z,101021.31
2023-02-17T09:06:21.481Z,101035.84
2023-02-17T09:07:23.073Z,101038.03
2023-02-17T09:08:24.653Z,101054.34
2023-02-17T09:09:29.271Z,101041.44
2023-02-17T09:10:30.817Z,101042.47
2023-02-17T09:11:32.354Z,101039.69
2023-02-17T09:12:34.411Z,101043.91
2023-02-17T09:13:36.138Z,101041.44
2023-02-17T09:14:37.707Z,101024.09
2023-02-17T09:15:39.334Z,101042.31
2023-02-17T09:16:41.717Z,101038.69
2023-02-17T09:17:43.311Z,101029.47
2023-02-17T09:18:44.802Z,101039.84
2023-02-17T09:19:47.127Z,101040.91
2023-02-17T09:20:48.779Z,101043.72
2023-02-17T09:21:50.346Z,101039.22
2023-02-17T09:22:52.483Z,101041.47
2023-02-17T09:23:56.061Z,101028.63
2023-02-17T09:24:57.592Z,101022.41
2023-02-17T09:26:05.954Z,101038.56
2023-02-17T09:27:09.109Z,101036.88
2023-02-17T09:28:10.927Z,101046.38
2023-02-17T09:29:12.422Z,101044.69
2023-02-17T09:30:14.140Z,101030.13
2023-02-17T09:31:19.867Z,101036.84
2023-02-17T09:32:21.624Z,101035.72
2023-02-17T09:33:23.199Z,101044.13
2023-02-17T09:34:24.849Z,101029.28
2023-02-17T09:35:26.417Z,101032.09
2023-02-17T09:36:31.204Z,101033.19
2023-02-17T09:37:32.704Z,101042.75
2023-02-17T09:38:34.253Z,101022.25
2023-02-17T09:39:35.752Z,101012.47
2023-02-17T09:40:49.966Z,101025.16
2023-02-17T09:41:55.391Z,101008.41
2023-02-17T09:42:56.909Z,101023.56
2023-02-17T09:43:58.406Z,101016.28
2023-02-17T09:45:00.428Z,101000.44
2023-02-17T09:46:10.380Z,101017.84
2023-02-17T09:47:16.311Z,101023.44
2023-02-17T09:48:18.625Z,101020.06
2023-02-17T09:49:21.222Z,101003.28
2023-02-17T09:50:45.853Z,101006.66
2023-02-17T09:51:59.052Z,101018.44
2023-02-17T09:53:05.082Z,101014.53
2023-02-17T09:54:06.521Z,101007.75
2023-02-17T09:55:09.593Z,101010.91
2023-02-17T09:56:12.108Z,101015.13
2023-02-17T09:57:15.880Z,101012.91
2023-02-17T09:58:28.071Z,101021.84
2023-02-17T09:59:33.575Z,101033.03
2023-02-17T10:00:35.084Z,101018.50
2023-02-17T10:01:36.712Z,101025.25
2023-02-17T10:02:43.692Z,101032.63
2023-02-17T10:03:46.854Z,101031.50
2023-02-17T10:04:48.487Z,101029.56
2023-02-17T10:05:52.293Z,101042.75
2023-02-17T10:06:54.937Z,101041.63
2023-02-17T10:08:16.674Z,101041.41
2023-02-17T10:09:24.341Z,101049.88
2023-02-17T10:10:26.748Z,101048.22
2023-02-17T10:11:30.774Z,101043.50
2023-02-17T10:12:37.242Z,101048.31
2023-02-17T10:13:38.845Z,101045.84
2023-02-17T10:14:43.134Z,101046.97
2023-02-17T10:15:45.143Z,101048.66
2023-02-17T10:16:51.584Z,101047.31
2023-02-17T10:17:57.396Z,101053.75
2023-02-17T10:19:04.975Z,101051.25
2023-02-17T10:20:09.139Z,101057.97
2023-02-17T10:21:13.067Z,101056.81
2023-02-17T10:22:16.053Z,101057.41
2023-02-17T10:23:18.942Z,101057.13
2023-02-17T10:24:20.505Z,101056.56
2023-02-17T10:25:42.265Z,101069.19
2023-02-17T10:26:53.551Z,101063.91
2023-02-17T10:28:00.881Z,101057.50
2023-02-17T10:29:13.800Z,101063.06
2023-02-17T10:30:20.719Z,101055.44
2023-02-17T10:31:34.487Z,101059.38
2023-02-17T10:32:44.843Z,101059.66
2023-02-17T10:33:55.377Z,101065.03
2023-02-17T10:35:02.855Z,101063.91
2023-02-17T10:36:07.678Z,101053.81
2023-02-17T10:37:12.501Z,101047.09
2023-02-17T10:38:15.764Z,101067.31
2023-02-17T10:39:35.570Z,101055.53
2023-02-17T10:40:37.036Z,101072.38
2023-02-17T10:41:38.594Z,101081.31
2023-02-17T10:42:40.132Z,101052.72
2023-02-17T10:43:41.692Z,101056.66
2023-02-17T10:44:43.226Z,101067.06
2023-02-17T10:45:45.524Z,101072.44
2023-02-17T10:46:48.518Z,101071.34
2023-02-17T10:47:50.089Z,101071.34
2023-02-17T10:48:51.861Z,101068.59
2023-02-17T10:49:53.626Z,101071.97
2023-02-17T10:50:56.301Z,101080.41
2023-02-17T10:52:09.892Z,101065.88
2023-02-17T10:53:25.427Z,101075.13
2023-02-17T10:54:32.755Z,101082.09
2023-02-17T10:55:37.870Z,101080.97
2023-02-17T10:56:40.060Z,101076.47
2023-02-17T10:57:41.548Z,101077.59
2023-02-17T10:58:45.940Z,101069.19
2023-02-17T10:59:47.929Z,101073.13
2023-02-17T11:00:50.045Z,101061.34
2023-02-17T11:01:51.572Z,101068.34
2023-02-17T11:02:53.012Z,101070.03
2023-02-17T11:04:04.600Z,101061.91
2023-02-17T11:05:06.764Z,101067.28
2023-02-17T11:06:18.258Z,101059.16
2023-02-17T11:07:21.307Z,101061.97
2023-02-17T11:08:30.582Z,101056.38
2023-02-17T11:09:32.937Z,101054.19
2023-02-17T11:10:34.425Z,101058.09
2023-02-17T11:11:35.938Z,101052.50
2023-02-17T11:12:40.458Z,101048.56
2023-02-17T11:13:46.289Z,101047.44
2023-02-17T11:14:51.710Z,101042.69
2023-02-17T11:15:53.199Z,101033.41
2023-02-17T11:16:58.975Z,101042.69
2023-02-17T11:18:00.665Z,101023.84
2023-02-17T11:19:02.465Z,101028.59
2023-02-17T11:20:27.093Z,101023.84
2023-02-17T11:21:29.075Z,101022.19
2023-02-17T11:22:32.355Z,101013.50
2023-02-17T11:23:33.834Z,101012.38
2023-02-17T11:24:35.347Z,101006.78
2023-02-17T11:25:37.836Z,101005.09
2023-02-17T11:26:39.337Z,101009.31
2023-02-17T11:27:40.792Z,101007.34
2023-02-17T11:28:42.294Z,101009.88
2023-02-17T11:29:43.730Z,101003.97
2023-02-17T11:30:49.997Z,100993.56
2023-02-17T11:31:55.514Z,100996.09
2023-02-17T11:32:57.030Z,100989.09
2023-02-17T11:33:58.562Z,100994.13
2023-02-17T11:35:06.297Z,100995.28
2023-02-17T11:36:08.410Z,100995.28
2023-02-17T11:37:23.766Z,100986.31
2023-02-17T11:38:41.328Z,100993.91
2023-02-17T11:39:43.929Z,100971.75
2023-02-17T11:40:54.236Z,100980.75
2023-02-17T11:41:55.784Z,100977.94
2023-02-17T11:43:00.538Z,100973.72
2023-02-17T11:44:02.180Z,100963.91
2023-02-17T11:45:12.024Z,100972.88
2023-02-17T11:46:33.891Z,100971.75
2023-02-17T11:47:38.993Z,100967.28
2023-02-17T11:48:52.803Z,100968.44
2023-02-17T11:49:57.578Z,100962.81
2023-02-17T11:51:14.620Z,100970.13
2023-02-17T11:52:16.078Z,100963.97
2023-02-17T11:53:22.843Z,100963.69
2023-02-17T11:54:26.529Z,100965.94
2023-02-17T11:55:36.779Z,100955.84
2023-02-17T11:56:38.748Z,100962.88
2023-02-17T11:57:40.910Z,100977.78
2023-02-17T11:58:55.013Z,100963.97
2023-02-17T11:59:56.557Z,100965.69
2023-02-17T12:00:58.043Z,100961.16